Terminal Aerodrome Forecast
Issued by NWS

Home | Current Version | Previous Version | Text Only | Print | Product List | Glossary On
Versions: 1 2 3 4 5 6 7 8 9 10 11 12 13 14 15 16 17 18 19 20
000
FTUS42 KGSP 241100
TAFGMU
TAF
KGMU 241122Z 2412/2512 26004KT P6SM SCT060 BKN120
     FM241400 25005KT P6SM VCSH BKN050
     FM241700 26005KT P6SM -SHRA BKN070
      TEMPO 2419/2422 VRB10G17KT 3SM -TSRA BR OVC040CB
     FM250200 32004KT P6SM BKN040
     FM250500 01006KT P6SM BKN090=

USA.gov is the U.S. government's official web portal to all federal, state and local government web resources and services.